createdAt,value
2018-08-14T00:00:45.570Z,26.80
2018-08-14T00:01:45.556Z,34.30
2018-08-14T00:02:45.538Z,32.30
2018-08-14T00:03:45.520Z,28.30
2018-08-14T00:04:45.496Z,27.40
2018-08-14T00:05:45.475Z,30.90
2018-08-14T00:06:45.446Z,30.20
2018-08-14T00:07:45.424Z,31.30
2018-08-14T00:08:45.401Z,31.30
2018-08-14T00:09:45.377Z,26.90
2018-08-14T00:10:45.351Z,29.10
2018-08-14T00:11:45.330Z,29.30
2018-08-14T00:12:45.342Z,29.70
2018-08-14T00:13:45.278Z,31.90
2018-08-14T00:14:45.270Z,29.90
2018-08-14T00:15:45.233Z,32.70
2018-08-14T00:16:45.207Z,30.30
2018-08-14T00:17:45.181Z,31.20
2018-08-14T00:18:45.157Z,30.20
2018-08-14T00:19:45.138Z,31.80
2018-08-14T00:20:45.113Z,29.50
2018-08-14T00:21:45.088Z,31.80
2018-08-14T00:22:45.046Z,32.50
2018-08-14T00:23:45.039Z,34.30
2018-08-14T00:24:44.995Z,37.90
2018-08-14T00:25:44.987Z,34.70
2018-08-14T00:26:44.965Z,37.30
2018-08-14T00:27:44.946Z,35.30
2018-08-14T00:28:44.916Z,31.80
2018-08-14T00:29:44.901Z,34.40
2018-08-14T00:30:44.871Z,32.20
2018-08-14T00:31:44.846Z,30.90
2018-08-14T00:32:44.829Z,34.50
2018-08-14T00:33:44.802Z,32.10
2018-08-14T00:34:44.784Z,34.80
2018-08-14T00:35:44.754Z,34.50
2018-08-14T00:36:44.731Z,33.50
2018-08-14T00:37:44.702Z,31.40
2018-08-14T00:38:44.659Z,31.70
2018-08-14T00:39:44.654Z,30.50
2018-08-14T00:40:44.638Z,32.70
2018-08-14T00:41:44.605Z,30.50
2018-08-14T00:42:44.583Z,29.80
2018-08-14T00:43:44.544Z,31.00
2018-08-14T00:44:44.541Z,32.40
2018-08-14T00:45:44.514Z,29.60
2018-08-14T00:46:44.491Z,34.00
2018-08-14T00:47:44.467Z,31.10
2018-08-14T00:48:44.437Z,33.20
2018-08-14T00:49:44.418Z,31.10
2018-08-14T00:50:44.388Z,31.40
2018-08-14T00:51:44.368Z,26.50
2018-08-14T00:52:44.341Z,27.50
2018-08-14T00:53:44.314Z,30.70
2018-08-14T00:54:44.280Z,27.90
2018-08-14T00:55:44.265Z,30.70
2018-08-14T00:56:44.250Z,26.60
2018-08-14T00:57:44.228Z,25.70
2018-08-14T00:58:44.194Z,24.90
2018-08-14T00:59:44.172Z,22.60
2018-08-14T01:00:44.152Z,25.10
2018-08-14T01:01:44.128Z,23.60
2018-08-14T01:02:44.113Z,22.90
2018-08-14T01:03:44.061Z,24.30
2018-08-14T01:04:44.054Z,27.00
2018-08-14T01:05:44.026Z,23.00
2018-08-14T01:06:44.004Z,23.60
2018-08-14T01:07:43.988Z,22.60
2018-08-14T01:08:43.964Z,25.20
2018-08-14T01:09:44.032Z,24.50
2018-08-14T01:10:43.910Z,27.70
2018-08-14T01:11:43.884Z,24.60
2018-08-14T01:12:43.839Z,23.50
2018-08-14T01:13:43.812Z,24.10
2018-08-14T01:14:43.808Z,25.70
2018-08-14T01:15:43.792Z,26.20
2018-08-14T01:16:43.763Z,23.00
2018-08-14T01:17:43.733Z,28.90
2018-08-14T01:18:43.714Z,23.70
2018-08-14T01:19:43.671Z,25.60
2018-08-14T01:20:43.662Z,23.00
2018-08-14T01:21:43.639Z,22.30
2018-08-14T01:22:43.618Z,29.00
2018-08-14T01:23:43.591Z,27.10
2018-08-14T01:24:43.565Z,27.90
2018-08-14T01:25:43.522Z,25.10
2018-08-14T01:26:43.516Z,24.40
2018-08-14T01:27:43.472Z,25.30
2018-08-14T01:28:43.446Z,24.90
2018-08-14T01:29:43.447Z,23.30
2018-08-14T01:30:43.405Z,22.10
2018-08-14T01:31:43.392Z,23.80
2018-08-14T01:32:43.369Z,25.40
2018-08-14T01:33:43.347Z,22.90
2018-08-14T01:34:43.323Z,23.50
2018-08-14T01:35:43.300Z,29.30
2018-08-14T01:36:43.269Z,25.50
2018-08-14T01:37:43.252Z,23.30
2018-08-14T01:38:43.234Z,24.50
2018-08-14T01:39:43.200Z,24.60
2018-08-14T01:40:43.175Z,22.70
2018-08-14T01:41:43.147Z,22.00
2018-08-14T01:42:43.110Z,22.40
2018-08-14T01:43:43.099Z,26.10
2018-08-14T01:44:43.082Z,26.20
2018-08-14T01:45:43.058Z,28.30
2018-08-14T01:46:43.013Z,25.80
2018-08-14T01:47:43.017Z,26.90
2018-08-14T01:48:43.003Z,26.20
2018-08-14T01:49:42.958Z,26.30
2018-08-14T01:50:42.917Z,24.10
2018-08-14T01:51:42.904Z,23.30
2018-08-14T01:52:42.894Z,24.40
2018-08-14T01:53:42.842Z,23.80
2018-08-14T01:54:42.848Z,25.20
2018-08-14T01:55:42.812Z,25.50
2018-08-14T01:56:42.785Z,24.40
2018-08-14T01:57:42.767Z,24.90
2018-08-14T01:58:42.738Z,24.20
2018-08-14T01:59:42.692Z,22.60
2018-08-14T02:00:42.690Z,24.90
2018-08-14T02:01:42.670Z,23.10
2018-08-14T02:02:42.638Z,23.00
2018-08-14T02:03:42.616Z,25.70
2018-08-14T02:04:42.595Z,21.60
2018-08-14T02:05:42.571Z,23.90
2018-08-14T02:06:42.526Z,21.60
2018-08-14T02:07:42.518Z,24.80
2018-08-14T02:08:42.500Z,24.20
2018-08-14T02:09:42.458Z,22.20
2018-08-14T02:10:42.444Z,22.80
2018-08-14T02:11:42.404Z,24.50
2018-08-14T02:12:42.397Z,23.10
2018-08-14T02:13:42.369Z,22.40
2018-08-14T02:14:42.350Z,22.10
2018-08-14T02:15:42.320Z,24.50
2018-08-14T02:16:42.305Z,21.10
2018-08-14T02:17:42.271Z,25.70
2018-08-14T02:18:42.247Z,24.50
2018-08-14T02:19:42.232Z,24.00
2018-08-14T02:20:42.205Z,23.10
2018-08-14T02:21:42.182Z,24.80
2018-08-14T02:22:42.152Z,21.20
2018-08-14T02:23:42.132Z,23.50
2018-08-14T02:24:42.104Z,25.20
2018-08-14T02:25:42.077Z,24.00
2018-08-14T02:26:42.059Z,23.50
2018-08-14T02:27:42.029Z,23.30
2018-08-14T02:28:42.005Z,22.80
2018-08-14T02:29:41.978Z,21.30
2018-08-14T02:30:41.957Z,24.80
2018-08-14T02:31:41.936Z,23.90
2018-08-14T02:32:41.909Z,23.60
2018-08-14T02:33:41.884Z,24.40
2018-08-14T02:34:41.856Z,23.00
2018-08-14T02:35:41.835Z,24.80
2018-08-14T02:36:41.813Z,26.10
2018-08-14T02:37:41.789Z,25.20
2018-08-14T02:38:41.764Z,22.70
2018-08-14T02:39:41.714Z,22.60
2018-08-14T02:40:41.711Z,25.40
2018-08-14T02:41:41.691Z,23.80
2018-08-14T02:42:41.646Z,25.50
2018-08-14T02:43:41.641Z,23.70
2018-08-14T02:44:41.616Z,20.50
2018-08-14T02:45:41.593Z,24.10
2018-08-14T02:46:41.570Z,22.40
2018-08-14T02:47:41.528Z,22.90
2018-08-14T02:48:41.500Z,21.10
2018-08-14T02:49:41.494Z,25.30
2018-08-14T02:50:41.470Z,22.00
2018-08-14T02:51:41.440Z,24.70
2018-08-14T02:52:41.416Z,23.10
2018-08-14T02:53:41.397Z,22.10
2018-08-14T02:54:41.406Z,20.60
2018-08-14T02:55:41.349Z,21.20
2018-08-14T02:56:41.326Z,23.70
2018-08-14T02:57:41.293Z,21.60
2018-08-14T02:58:41.267Z,21.80
2018-08-14T02:59:41.247Z,22.00
2018-08-14T03:00:41.226Z,19.30
2018-08-14T03:01:41.183Z,20.70
2018-08-14T03:02:41.177Z,18.80
2018-08-14T03:03:41.131Z,22.40
2018-08-14T03:04:41.125Z,15.90
2018-08-14T03:05:41.098Z,16.50
2018-08-14T03:06:41.077Z,17.00
2018-08-14T03:07:41.051Z,18.30
2018-08-14T03:08:41.029Z,19.70
2018-08-14T03:09:41.003Z,16.70
2018-08-14T03:10:40.978Z,20.20
2018-08-14T03:11:40.948Z,20.60
2018-08-14T03:12:40.921Z,20.40
2018-08-14T03:13:40.904Z,19.10
2018-08-14T03:14:40.881Z,21.00
2018-08-14T03:15:40.849Z,19.50
2018-08-14T03:16:40.827Z,19.20
2018-08-14T03:17:40.810Z,18.30
2018-08-14T03:18:40.777Z,18.70
2018-08-14T03:19:40.857Z,19.50
2018-08-14T03:20:40.729Z,19.30
2018-08-14T03:21:40.709Z,19.40
2018-08-14T03:22:40.680Z,20.20
2018-08-14T03:23:40.658Z,17.50
2018-08-14T03:24:40.630Z,17.50
2018-08-14T03:25:40.605Z,15.90
2018-08-14T03:26:40.593Z,18.80
2018-08-14T03:27:40.555Z,17.20
2018-08-14T03:28:40.517Z,16.60
2018-08-14T03:29:40.501Z,15.80
2018-08-14T03:30:40.464Z,18.20
2018-08-14T03:31:40.457Z,16.90
2018-08-14T03:32:40.411Z,15.40
2018-08-14T03:33:40.413Z,18.70
2018-08-14T03:34:40.386Z,15.60
2018-08-14T03:35:40.344Z,14.90
2018-08-14T03:36:40.333Z,15.00
2018-08-14T03:37:40.291Z,12.50
2018-08-14T03:38:40.285Z,13.30
2018-08-14T03:39:40.254Z,14.10
2018-08-14T03:40:40.224Z,14.70
2018-08-14T03:41:40.214Z,13.80
2018-08-14T03:42:40.184Z,10.70
2018-08-14T03:43:40.144Z,10.20
2018-08-14T03:44:40.134Z,11.10
2018-08-14T03:45:40.108Z,9.80
2018-08-14T03:46:40.086Z,9.10
2018-08-14T03:47:40.042Z,9.20
2018-08-14T03:48:40.014Z,10.50
2018-08-14T03:49:40.013Z,11.70
2018-08-14T03:50:39.966Z,9.60
2018-08-14T03:51:39.967Z,9.00
2018-08-14T03:52:39.920Z,10.00
2018-08-14T03:53:39.917Z,9.30
2018-08-14T03:54:39.894Z,9.00
2018-08-14T03:55:39.865Z,10.10
2018-08-14T03:56:39.840Z,12.10
2018-08-14T03:57:39.812Z,11.40
2018-08-14T03:58:39.774Z,12.10
2018-08-14T03:59:39.765Z,12.30
2018-08-14T04:00:39.741Z,9.80
2018-08-14T04:01:39.720Z,11.50
2018-08-14T04:02:39.679Z,11.10
2018-08-14T04:03:39.661Z,10.70
2018-08-14T04:04:39.644Z,11.20
2018-08-14T04:05:39.621Z,13.00
2018-08-14T04:06:39.592Z,11.30
2018-08-14T04:07:39.644Z,10.20
2018-08-14T04:08:39.552Z,9.80
2018-08-14T04:09:39.523Z,9.90
2018-08-14T04:10:39.493Z,10.70
2018-08-14T04:11:39.475Z,10.00
2018-08-14T04:12:39.443Z,9.40
2018-08-14T04:13:39.419Z,11.60
2018-08-14T04:14:39.396Z,13.30
2018-08-14T04:15:39.372Z,11.10
2018-08-14T04:16:39.346Z,9.70
2018-08-14T04:17:39.301Z,11.00
2018-08-14T04:18:39.297Z,12.60
2018-08-14T04:19:39.256Z,12.90
2018-08-14T04:20:39.248Z,11.70
2018-08-14T04:21:39.280Z,12.00
2018-08-14T04:22:39.204Z,11.60
2018-08-14T04:23:39.174Z,10.80
2018-08-14T04:24:39.152Z,10.50
2018-08-14T04:25:39.124Z,12.20
2018-08-14T04:26:39.133Z,12.70
2018-08-14T04:27:39.081Z,10.00
2018-08-14T04:28:39.051Z,11.50
2018-08-14T04:29:39.028Z,12.00
2018-08-14T04:30:39.007Z,13.40
2018-08-14T04:31:38.979Z,11.80
2018-08-14T04:32:38.953Z,17.30
2018-08-14T04:33:38.927Z,12.30
2018-08-14T04:34:38.907Z,11.50
2018-08-14T04:35:38.878Z,12.70
2018-08-14T04:36:38.856Z,12.90
2018-08-14T04:37:38.827Z,11.20
2018-08-14T04:38:38.781Z,12.40
2018-08-14T04:39:38.779Z,12.80
2018-08-14T04:40:38.760Z,12.10
2018-08-14T04:41:38.717Z,12.60
2018-08-14T04:42:38.706Z,11.40
2018-08-14T04:43:38.677Z,13.70
2018-08-14T04:44:38.659Z,11.90
2018-08-14T04:45:38.626Z,11.70
2018-08-14T04:46:38.590Z,12.50
2018-08-14T04:47:38.582Z,15.60
2018-08-14T04:48:38.559Z,14.10
2018-08-14T04:49:38.510Z,12.90
2018-08-14T04:50:38.504Z,12.40
2018-08-14T04:51:38.486Z,12.10
2018-08-14T04:52:38.462Z,10.70
2018-08-14T04:53:38.431Z,11.50
2018-08-14T04:54:38.414Z,12.30
2018-08-14T04:55:38.381Z,13.60
2018-08-14T04:56:38.354Z,11.70
2018-08-14T04:57:38.330Z,12.10
2018-08-14T04:58:38.308Z,13.50
2018-08-14T04:59:38.286Z,14.90
2018-08-14T05:00:38.258Z,12.10
2018-08-14T05:01:38.225Z,12.70
2018-08-14T05:02:38.190Z,11.80
2018-08-14T05:03:38.184Z,13.50
2018-08-14T05:04:38.153Z,13.90
2018-08-14T05:05:38.129Z,15.30
2018-08-14T05:06:38.112Z,16.20
2018-08-14T05:07:38.066Z,13.50
2018-08-14T05:08:38.045Z,11.60
2018-08-14T05:09:38.015Z,14.50
2018-08-14T05:10:38.008Z,13.90
2018-08-14T05:11:37.992Z,14.10
2018-08-14T05:12:37.963Z,13.70
2018-08-14T05:13:37.934Z,14.50
2018-08-14T05:14:37.963Z,14.30
2018-08-14T05:15:37.887Z,11.90
2018-08-14T05:16:37.858Z,12.80
2018-08-14T05:17:37.835Z,14.60
2018-08-14T05:18:37.813Z,13.80
2018-08-14T05:19:37.769Z,11.50
2018-08-14T05:20:37.762Z,9.90
2018-08-14T05:21:37.719Z,11.20
2018-08-14T05:22:37.714Z,11.50
2018-08-14T05:23:37.685Z,11.40
2018-08-14T05:24:37.640Z,12.50
2018-08-14T05:25:37.632Z,13.10
2018-08-14T05:26:37.595Z,14.40
2018-08-14T05:27:37.582Z,13.10
2018-08-14T05:28:37.544Z,14.30
2018-08-14T05:29:37.539Z,14.40
2018-08-14T05:30:37.492Z,14.50
2018-08-14T05:31:37.488Z,14.20
2018-08-14T05:32:37.445Z,12.60
2018-08-14T05:33:37.569Z,13.40
2018-08-14T05:34:37.410Z,12.80
2018-08-14T05:35:37.385Z,14.20
2018-08-14T05:36:37.345Z,13.30
2018-08-14T05:37:37.344Z,18.00
2018-08-14T05:38:37.316Z,14.90
2018-08-14T05:39:37.297Z,16.40
2018-08-14T05:40:37.269Z,16.60
2018-08-14T05:41:37.223Z,13.90
2018-08-14T05:42:37.197Z,17.30
2018-08-14T05:43:37.272Z,17.00
2018-08-14T05:44:37.169Z,13.30
2018-08-14T05:45:37.144Z,14.80
2018-08-14T05:46:37.118Z,17.10
2018-08-14T05:47:37.096Z,17.80
2018-08-14T05:48:37.074Z,16.40
2018-08-14T05:49:37.053Z,18.60
2018-08-14T05:50:37.027Z,14.10
2018-08-14T05:51:36.993Z,18.30
2018-08-14T05:52:36.970Z,17.30
2018-08-14T05:53:36.940Z,14.30
2018-08-14T05:54:36.903Z,16.80
2018-08-14T05:55:36.899Z,16.30
2018-08-14T05:56:36.869Z,17.80
2018-08-14T05:57:36.848Z,18.70
2018-08-14T05:58:36.806Z,14.60
2018-08-14T05:59:36.796Z,19.60
2018-08-14T06:00:36.769Z,15.40
2018-08-14T06:01:36.756Z,15.40
2018-08-14T06:02:36.719Z,16.10
2018-08-14T06:03:36.684Z,16.90
2018-08-14T06:04:36.671Z,15.90
2018-08-14T06:05:36.637Z,16.00
2018-08-14T06:06:36.628Z,16.50
2018-08-14T06:07:36.597Z,18.90
2018-08-14T06:08:36.571Z,16.80
2018-08-14T06:09:36.550Z,18.00
2018-08-14T06:10:36.528Z,16.70
2018-08-14T06:11:36.497Z,16.80
2018-08-14T06:12:36.478Z,16.80
2018-08-14T06:13:36.449Z,14.00
2018-08-14T06:14:36.433Z,13.40
2018-08-14T06:15:36.399Z,15.30
2018-08-14T06:16:36.376Z,17.10
2018-08-14T06:17:36.353Z,15.80
2018-08-14T06:18:36.327Z,17.20
2018-08-14T06:19:36.303Z,16.70
2018-08-14T06:20:36.260Z,14.20
2018-08-14T06:21:36.254Z,15.60
2018-08-14T06:22:36.258Z,18.00
2018-08-14T06:23:36.201Z,15.20
2018-08-14T06:24:36.154Z,16.30
2018-08-14T06:25:36.152Z,14.10
2018-08-14T06:26:36.132Z,16.40
2018-08-14T06:27:36.102Z,13.70
2018-08-14T06:28:36.108Z,16.30
2018-08-14T06:29:36.058Z,13.40
2018-08-14T06:30:36.027Z,14.40
2018-08-14T06:31:36.006Z,17.30
2018-08-14T06:32:35.972Z,16.20
2018-08-14T06:33:35.935Z,15.30
2018-08-14T06:34:35.910Z,17.00
2018-08-14T06:35:35.904Z,14.40
2018-08-14T06:36:35.877Z,16.20
2018-08-14T06:37:35.835Z,15.60
2018-08-14T06:38:35.808Z,14.40
2018-08-14T06:39:35.803Z,13.10
2018-08-14T06:40:35.783Z,13.70
2018-08-14T06:41:35.737Z,16.90
2018-08-14T06:42:35.738Z,13.90
2018-08-14T06:43:35.704Z,15.40
2018-08-14T06:44:35.672Z,12.30
2018-08-14T06:45:35.656Z,12.40
2018-08-14T06:46:35.625Z,10.80
2018-08-14T06:47:35.602Z,12.70
2018-08-14T06:48:35.601Z,12.30
2018-08-14T06:49:35.537Z,9.30
2018-08-14T06:50:35.531Z,10.80
2018-08-14T06:51:35.507Z,10.70
2018-08-14T06:52:35.480Z,11.00
2018-08-14T06:53:35.458Z,13.20
2018-08-14T06:54:35.444Z,10.90
2018-08-14T06:55:35.400Z,11.00
2018-08-14T06:56:35.357Z,11.40
2018-08-14T06:57:35.331Z,11.50
2018-08-14T06:58:35.332Z,12.40
2018-08-14T06:59:35.303Z,13.70
2018-08-14T07:00:35.282Z,13.40
2018-08-14T07:01:35.248Z,12.20
2018-08-14T07:02:35.231Z,11.90
2018-08-14T07:03:35.202Z,12.70
2018-08-14T07:04:35.178Z,11.70
2018-08-14T07:05:35.157Z,14.40
2018-08-14T07:06:35.127Z,13.60
2018-08-14T07:07:35.111Z,13.40
2018-08-14T07:08:35.082Z,12.90
2018-08-14T07:09:35.074Z,15.60
2018-08-14T07:10:35.024Z,12.80
2018-08-14T07:11:34.999Z,15.80
2018-08-14T07:12:34.977Z,14.50
2018-08-14T07:13:34.949Z,17.60
2018-08-14T07:14:34.924Z,17.20
2018-08-14T07:15:35.255Z,16.50
2018-08-14T07:16:34.945Z,13.80
2018-08-14T07:17:34.855Z,17.20
2018-08-14T07:18:34.811Z,17.50
2018-08-14T07:19:34.797Z,18.00
2018-08-14T07:20:34.776Z,14.20
2018-08-14T07:21:34.762Z,17.40
2018-08-14T07:22:34.729Z,16.90
2018-08-14T07:23:34.701Z,16.20
2018-08-14T07:24:34.656Z,19.40
2018-08-14T07:25:34.650Z,17.00
2018-08-14T07:26:34.625Z,18.50
2018-08-14T07:27:34.601Z,18.10
2018-08-14T07:28:34.575Z,17.80
2018-08-14T07:29:34.546Z,17.80
2018-08-14T07:30:34.529Z,15.90
2018-08-14T07:31:34.499Z,20.30
2018-08-14T07:32:34.477Z,18.90
2018-08-14T07:33:34.451Z,18.30
2018-08-14T07:34:34.432Z,19.40
2018-08-14T07:35:34.396Z,18.00
2018-08-14T07:36:34.370Z,17.60
2018-08-14T07:37:34.350Z,20.70
2018-08-14T07:38:34.321Z,16.70
2018-08-14T07:39:34.303Z,21.40
2018-08-14T07:40:34.271Z,18.10
2018-08-14T07:41:34.245Z,19.80
2018-08-14T07:42:34.232Z,20.80
2018-08-14T07:43:34.204Z,20.20
2018-08-14T07:44:34.176Z,21.50
2018-08-14T07:45:34.134Z,19.10
2018-08-14T07:46:34.129Z,24.40
2018-08-14T07:47:34.084Z,21.40
2018-08-14T07:48:34.072Z,21.00
2018-08-14T07:49:34.048Z,22.40
2018-08-14T07:50:34.018Z,21.70
2018-08-14T07:51:34.000Z,22.50
2018-08-14T07:52:33.976Z,22.00
2018-08-14T07:53:33.944Z,18.40
2018-08-14T07:54:33.919Z,21.50
2018-08-14T07:55:33.897Z,25.30
2018-08-14T07:56:33.871Z,20.70
2018-08-14T07:57:33.849Z,21.50
2018-08-14T07:58:33.872Z,18.50
2018-08-14T07:59:33.791Z,20.20
2018-08-14T08:00:33.769Z,22.00
2018-08-14T08:01:33.746Z,20.40
2018-08-14T08:02:33.725Z,22.60
2018-08-14T08:03:33.697Z,20.30
2018-08-14T08:04:33.653Z,16.20
2018-08-14T08:05:33.648Z,18.10
2018-08-14T08:06:33.624Z,18.10
2018-08-14T08:07:33.594Z,19.70
2018-08-14T08:08:33.570Z,17.40
2018-08-14T08:09:33.529Z,18.30
2018-08-14T08:10:33.563Z,16.90
2018-08-14T08:11:33.495Z,15.00
2018-08-14T08:12:33.466Z,17.30
2018-08-14T08:13:33.433Z,17.70
2018-08-14T08:14:33.416Z,16.60
2018-08-14T08:15:33.394Z,15.10
2018-08-14T08:16:33.375Z,13.40
2018-08-14T08:17:33.323Z,13.10
2018-08-14T08:18:33.325Z,17.70
2018-08-14T08:19:33.297Z,17.60
2018-08-14T08:20:33.270Z,18.50
2018-08-14T08:21:33.242Z,17.70
2018-08-14T08:22:33.217Z,21.30
2018-08-14T08:23:33.191Z,17.50
2018-08-14T08:24:33.170Z,17.60
2018-08-14T08:25:33.147Z,19.80
2018-08-14T08:26:33.119Z,18.70
2018-08-14T08:27:33.100Z,17.50
2018-08-14T08:28:33.062Z,17.10
2018-08-14T08:29:33.044Z,16.90
2018-08-14T08:30:33.013Z,13.00
2018-08-14T08:31:33.066Z,16.30
2018-08-14T08:32:32.961Z,20.10
2018-08-14T08:33:32.943Z,17.90
2018-08-14T08:34:32.943Z,16.70
2018-08-14T08:35:32.886Z,20.70
2018-08-14T08:36:32.844Z,15.40
2018-08-14T08:37:32.838Z,19.00
2018-08-14T08:38:32.810Z,18.20
2018-08-14T08:39:32.795Z,17.80
2018-08-14T08:40:32.766Z,14.20
2018-08-14T08:41:32.740Z,14.50
2018-08-14T08:42:32.711Z,18.60
2018-08-14T08:43:32.690Z,14.40
2018-08-14T08:44:32.666Z,13.20
2018-08-14T08:45:32.634Z,15.60
2018-08-14T08:46:32.619Z,14.00
2018-08-14T08:47:32.589Z,13.60
2018-08-14T08:48:32.564Z,11.80
2018-08-14T08:49:32.532Z,13.50
2018-08-14T08:50:32.516Z,14.50
2018-08-14T08:51:32.555Z,17.10
2018-08-14T08:52:32.456Z,14.10
2018-08-14T08:53:32.432Z,13.40
2018-08-14T08:54:32.411Z,12.70
2018-08-14T08:55:32.387Z,13.50
2018-08-14T08:56:32.360Z,14.40
2018-08-14T08:57:32.334Z,12.00
2018-08-14T08:58:32.312Z,13.40
2018-08-14T08:59:32.262Z,12.20
2018-08-14T09:00:32.264Z,13.30
2018-08-14T09:01:32.239Z,12.60
2018-08-14T09:02:32.249Z,12.70
2018-08-14T09:03:32.214Z,14.70
2018-08-14T09:04:32.162Z,10.60
2018-08-14T09:05:32.138Z,14.50
2018-08-14T09:06:32.092Z,11.20
2018-08-14T09:07:32.089Z,11.60
2018-08-14T09:08:32.057Z,13.90
2018-08-14T09:09:32.036Z,12.70
2018-08-14T09:10:32.009Z,11.00
2018-08-14T09:11:31.981Z,12.80
2018-08-14T09:12:31.953Z,10.90
2018-08-14T09:13:31.934Z,9.60
2018-08-14T09:14:31.906Z,10.30
2018-08-14T09:15:31.881Z,15.10
2018-08-14T09:16:31.860Z,12.10
2018-08-14T09:17:31.835Z,13.00
2018-08-14T09:18:31.801Z,12.60
2018-08-14T09:19:31.767Z,12.30
2018-08-14T09:20:31.755Z,11.70
2018-08-14T09:21:31.726Z,12.30
2018-08-14T09:22:31.705Z,10.80
2018-08-14T09:23:31.681Z,11.70
2018-08-14T09:24:31.640Z,12.40
2018-08-14T09:25:31.632Z,11.90
2018-08-14T09:26:31.609Z,15.40
2018-08-14T09:27:31.576Z,12.90
2018-08-14T09:28:31.549Z,16.10
2018-08-14T09:29:31.513Z,12.40
2018-08-14T09:30:31.501Z,15.30
2018-08-14T09:31:31.477Z,13.40
2018-08-14T09:32:31.451Z,14.50
2018-08-14T09:33:31.421Z,15.60
2018-08-14T09:34:31.405Z,14.60
2018-08-14T09:35:31.374Z,12.30
2018-08-14T09:36:31.350Z,17.50
2018-08-14T09:37:31.325Z,14.90
2018-08-14T09:38:31.303Z,13.00
2018-08-14T09:39:31.278Z,14.30
2018-08-14T09:40:31.249Z,13.80
2018-08-14T09:41:31.223Z,13.20
2018-08-14T09:42:31.178Z,16.90
2018-08-14T09:43:31.175Z,14.20
2018-08-14T09:44:31.144Z,15.40
2018-08-14T09:45:31.106Z,15.60
2018-08-14T09:46:31.102Z,13.70
2018-08-14T09:47:31.050Z,13.70
2018-08-14T09:48:31.047Z,13.50
2018-08-14T09:49:31.027Z,12.40
2018-08-14T09:50:30.992Z,12.80
2018-08-14T09:51:30.976Z,12.30
2018-08-14T09:52:30.944Z,13.90
2018-08-14T09:53:30.923Z,14.50
2018-08-14T09:54:30.934Z,14.00
2018-08-14T09:55:30.852Z,12.00
2018-08-14T09:56:30.848Z,12.90
2018-08-14T09:57:30.823Z,13.90
2018-08-14T09:58:30.794Z,13.20
2018-08-14T09:59:30.772Z,14.80
2018-08-14T10:00:30.743Z,15.20
2018-08-14T10:01:30.720Z,16.60
2018-08-14T10:02:30.697Z,13.00
2018-08-14T10:03:30.665Z,13.20
2018-08-14T10:04:30.643Z,15.20
2018-08-14T10:05:30.620Z,11.80
2018-08-14T10:06:30.594Z,11.60
2018-08-14T10:07:30.571Z,13.20
2018-08-14T10:08:30.544Z,14.30
2018-08-14T10:09:30.522Z,14.00
2018-08-14T10:10:30.498Z,15.70
2018-08-14T10:11:30.469Z,17.10
2018-08-14T10:12:30.444Z,13.60
2018-08-14T10:13:30.423Z,12.80
2018-08-14T10:14:30.402Z,14.10
2018-08-14T10:15:30.371Z,14.20
2018-08-14T10:16:30.327Z,11.90
2018-08-14T10:17:30.325Z,15.00
2018-08-14T10:18:30.302Z,11.90
2018-08-14T10:19:30.271Z,13.70
2018-08-14T10:20:30.231Z,13.20
2018-08-14T10:21:30.207Z,13.10
2018-08-14T10:22:30.190Z,15.90
2018-08-14T10:23:30.170Z,13.20
2018-08-14T10:24:30.141Z,13.90
2018-08-14T10:25:30.115Z,15.00
2018-08-14T10:26:30.104Z,15.80
2018-08-14T10:27:30.067Z,16.40
2018-08-14T10:28:30.131Z,15.10
2018-08-14T10:29:30.020Z,14.40
2018-08-14T10:30:29.996Z,14.90
2018-08-14T10:31:29.952Z,14.60
2018-08-14T10:32:29.949Z,15.70
2018-08-14T10:33:29.921Z,15.20
2018-08-14T10:34:29.904Z,15.00
2018-08-14T10:35:29.854Z,15.30
2018-08-14T10:36:29.852Z,14.60
2018-08-14T10:37:29.825Z,13.90
2018-08-14T10:38:29.799Z,16.30
2018-08-14T10:39:29.774Z,14.30
2018-08-14T10:40:29.744Z,15.20
2018-08-14T10:41:29.724Z,18.50
2018-08-14T10:42:29.689Z,16.80
2018-08-14T10:43:29.679Z,16.00
2018-08-14T10:44:29.629Z,17.50
2018-08-14T10:45:29.624Z,14.60
2018-08-14T10:46:29.643Z,16.40
2018-08-14T10:47:29.577Z,17.00
2018-08-14T10:48:29.561Z,16.00
2018-08-14T10:49:29.529Z,17.50
2018-08-14T10:50:29.508Z,16.40
2018-08-14T10:51:29.483Z,19.20
2018-08-14T10:52:29.451Z,15.90
2018-08-14T10:53:29.440Z,16.50
2018-08-14T10:54:29.407Z,18.50
2018-08-14T10:55:29.387Z,16.00
2018-08-14T10:56:29.359Z,18.70
2018-08-14T10:57:29.336Z,18.80
2018-08-14T10:58:29.315Z,20.10
2018-08-14T10:59:29.290Z,17.10
2018-08-14T11:00:29.262Z,19.40
2018-08-14T11:01:29.243Z,17.10
2018-08-14T11:02:29.218Z,16.00
2018-08-14T11:03:29.175Z,16.50
2018-08-14T11:04:29.184Z,16.70
2018-08-14T11:05:29.144Z,16.70
2018-08-14T11:06:29.127Z,17.50
2018-08-14T11:07:29.100Z,17.20
2018-08-14T11:08:29.075Z,17.80
2018-08-14T11:09:29.055Z,15.90
2018-08-14T11:10:29.027Z,14.40
2018-08-14T11:11:29.008Z,15.30
2018-08-14T11:12:28.982Z,17.20
2018-08-14T11:13:28.942Z,15.50
2018-08-14T11:14:28.933Z,17.10
2018-08-14T11:15:28.909Z,18.30
2018-08-14T11:16:29.044Z,14.70
2018-08-14T11:17:28.870Z,15.40
2018-08-14T11:18:28.854Z,15.70
2018-08-14T11:19:28.822Z,16.50
2018-08-14T11:20:28.802Z,17.50
2018-08-14T11:21:28.778Z,17.50
2018-08-14T11:22:28.758Z,18.20
2018-08-14T11:23:28.735Z,19.50
2018-08-14T11:24:28.708Z,18.60
2018-08-14T11:25:28.690Z,15.80
2018-08-14T11:26:28.645Z,16.30
2018-08-14T11:27:28.640Z,16.10
2018-08-14T11:28:28.618Z,18.30
2018-08-14T11:29:28.592Z,15.70
2018-08-14T11:30:28.558Z,19.00
2018-08-14T11:31:28.547Z,16.70
2018-08-14T11:32:28.564Z,14.20
2018-08-14T11:33:28.491Z,18.00
2018-08-14T11:34:28.490Z,18.50
2018-08-14T11:35:28.445Z,14.30
2018-08-14T11:36:28.446Z,16.20
2018-08-14T11:37:28.427Z,14.90
2018-08-14T11:38:28.388Z,18.30
2018-08-14T11:39:28.378Z,15.50
2018-08-14T11:40:28.357Z,14.00
2018-08-14T11:41:28.353Z,15.10
2018-08-14T11:42:28.315Z,17.70
2018-08-14T11:43:28.300Z,16.40
2018-08-14T11:44:28.276Z,16.30
2018-08-14T11:45:28.255Z,14.50
2018-08-14T11:46:28.217Z,17.30
2018-08-14T11:47:28.212Z,15.70
2018-08-14T11:48:28.192Z,18.80
2018-08-14T11:49:28.182Z,17.00
2018-08-14T11:50:28.156Z,15.30
2018-08-14T11:51:28.136Z,14.70
2018-08-14T11:52:28.119Z,16.80
2018-08-14T11:53:28.091Z,13.80
2018-08-14T11:54:28.078Z,17.70
2018-08-14T11:55:28.054Z,14.90
2018-08-14T11:56:28.013Z,13.30
2018-08-14T11:57:28.057Z,15.30
2018-08-14T11:58:27.996Z,15.30
2018-08-14T11:59:27.970Z,14.10
2018-08-14T12:00:27.937Z,15.50
2018-08-14T12:01:27.933Z,16.10
2018-08-14T12:02:27.891Z,13.90
2018-08-14T12:03:27.901Z,17.20
2018-08-14T12:04:27.874Z,13.50
2018-08-14T12:05:27.859Z,15.30
2018-08-14T12:06:27.835Z,14.30
2018-08-14T12:07:27.811Z,13.00
2018-08-14T12:08:27.802Z,14.80
2018-08-14T12:09:27.774Z,16.00
2018-08-14T12:10:27.764Z,15.30
2018-08-14T12:11:27.720Z,16.30
2018-08-14T12:12:27.724Z,15.50
2018-08-14T12:13:27.680Z,15.50
2018-08-14T12:14:27.690Z,13.60
2018-08-14T12:15:27.659Z,14.40
2018-08-14T12:16:27.644Z,17.50
2018-08-14T12:17:27.602Z,15.30
2018-08-14T12:18:27.609Z,15.70
2018-08-14T12:19:27.584Z,15.60
2018-08-14T12:20:27.584Z,15.20
2018-08-14T12:21:27.549Z,15.10
2018-08-14T12:22:27.509Z,17.00
2018-08-14T12:23:27.513Z,15.00
2018-08-14T12:24:27.477Z,14.90
2018-08-14T12:25:27.475Z,16.80
2018-08-14T12:26:27.433Z,15.80
2018-08-14T12:27:27.434Z,16.30
2018-08-14T12:28:27.416Z,14.80
2018-08-14T12:29:27.396Z,17.60
2018-08-14T12:30:27.381Z,18.30
2018-08-14T12:31:27.366Z,14.40
2018-08-14T12:32:27.346Z,14.70
2018-08-14T12:33:27.330Z,15.00
2018-08-14T12:34:27.306Z,15.90
2018-08-14T12:35:27.291Z,20.10
2018-08-14T12:36:27.272Z,18.80
2018-08-14T12:37:27.253Z,18.40
2018-08-14T12:38:27.234Z,16.00
2018-08-14T12:39:27.219Z,15.70
2018-08-14T12:40:27.260Z,16.50
2018-08-14T12:41:27.178Z,17.10
2018-08-14T12:42:27.158Z,17.20
2018-08-14T12:43:27.139Z,15.10
2018-08-14T12:44:27.126Z,15.10
2018-08-14T12:45:27.108Z,15.40
2018-08-14T12:46:27.068Z,15.10
2018-08-14T12:47:27.069Z,15.10
2018-08-14T12:48:27.051Z,15.40
2018-08-14T12:49:27.037Z,14.50
2018-08-14T12:50:27.048Z,14.70
2018-08-14T12:51:27.001Z,15.60
2018-08-14T12:52:26.981Z,15.30
2018-08-14T12:53:26.966Z,15.80